sensor_id;sensor_type;location;lat;lon;timestamp;pressure;altitude;pressure_sealevel;temperature;humidity
51715;BME280;39115;59.332;18.034;2024-03-17T00:01:25;100701.03;;;5.43;67.27
51715;BME280;39115;59.332;18.034;2024-03-17T00:03:46;100702.81;;;5.43;67.46
51715;BME280;39115;59.332;18.034;2024-03-17T00:06:06;100720.66;;;5.39;67.55
51715;BME280;39115;59.332;18.034;2024-03-17T00:08:28;100728.69;;;5.37;67.48
51715;BME280;39115;59.332;18.034;2024-03-17T00:10:55;100727.75;;;5.38;67.59
51715;BME280;39115;59.332;18.034;2024-03-17T00:13:16;100724.47;;;5.35;67.21
51715;BME280;39115;59.332;18.034;2024-03-17T00:15:37;100741.25;;;5.34;67.41
51715;BME280;39115;59.332;18.034;2024-03-17T00:17:57;100738.72;;;5.32;67.49
51715;BME280;39115;59.332;18.034;2024-03-17T00:20:18;100751.06;;;5.32;67.14
51715;BME280;39115;59.332;18.034;2024-03-17T00:22:42;100734.56;;;5.28;67.56
51715;BME280;39115;59.332;18.034;2024-03-17T00:25:02;100762.78;;;5.28;67.65
51715;BME280;39115;59.332;18.034;2024-03-17T00:27:23;100763.72;;;5.27;67.23
51715;BME280;39115;59.332;18.034;2024-03-17T00:29:44;100772.56;;;5.26;67.31
51715;BME280;39115;59.332;18.034;2024-03-17T00:32:06;100767.41;;;5.24;67.08
51715;BME280;39115;59.332;18.034;2024-03-17T00:34:26;100776.28;;;5.23;67.12
51715;BME280;39115;59.332;18.034;2024-03-17T00:36:47;100764.97;;;5.21;67.18
51715;BME280;39115;59.332;18.034;2024-03-17T00:39:07;100775.63;;;5.19;66.79
51715;BME280;39115;59.332;18.034;2024-03-17T00:41:28;100781.94;;;5.17;67.53
51715;BME280;39115;59.332;18.034;2024-03-17T00:43:52;100792.59;;;5.15;67.18
51715;BME280;39115;59.332;18.034;2024-03-17T00:46:12;100771.56;;;5.14;67.35
51715;BME280;39115;59.332;18.034;2024-03-17T00:48:33;100790.16;;;5.12;67.46
51715;BME280;39115;59.332;18.034;2024-03-17T00:50:57;100803.44;;;5.11;67.10
51715;BME280;39115;59.332;18.034;2024-03-17T00:53:18;100827.28;;;5.09;67.19
51715;BME280;39115;59.332;18.034;2024-03-17T00:55:38;100803.66;;;5.07;67.37
51715;BME280;39115;59.332;18.034;2024-03-17T00:57:59;100815.25;;;5.05;67.33
51715;BME280;39115;59.332;18.034;2024-03-17T01:00:20;100816.19;;;5.04;67.47
51715;BME280;39115;59.332;18.034;2024-03-17T01:02:41;100828.50;;;5.03;67.13
51715;BME280;39115;59.332;18.034;2024-03-17T01:05:02;100833.06;;;5.01;67.01
51715;BME280;39115;59.332;18.034;2024-03-17T01:07:25;100836.63;;;5.00;67.39
51715;BME280;39115;59.332;18.034;2024-03-17T01:09:47;100847.28;;;4.99;67.17
51715;BME280;39115;59.332;18.034;2024-03-17T01:12:08;100836.81;;;4.97;66.94
51715;BME280;39115;59.332;18.034;2024-03-17T01:14:29;100857.16;;;4.95;67.38
51715;BME280;39115;59.332;18.034;2024-03-17T01:16:51;100855.47;;;4.94;67.02
51715;BME280;39115;59.332;18.034;2024-03-17T01:19:11;100862.66;;;4.92;67.21
51715;BME280;39115;59.332;18.034;2024-03-17T01:21:32;100863.59;;;4.91;67.10
51715;BME280;39115;59.332;18.034;2024-03-17T01:23:52;100876.03;;;4.89;67.34
51715;BME280;39115;59.332;18.034;2024-03-17T01:26:13;100859.34;;;4.88;67.42
51715;BME280;39115;59.332;18.034;2024-03-17T01:28:33;100884.97;;;4.86;67.08
51715;BME280;39115;59.332;18.034;2024-03-17T01:30:54;100872.72;;;4.85;66.71
51715;BME280;39115;59.332;18.034;2024-03-17T01:33:14;100884.22;;;4.84;67.02
51715;BME280;39115;59.332;18.034;2024-03-17T01:35:35;100887.91;;;4.82;66.77
51715;BME280;39115;59.332;18.034;2024-03-17T01:37:56;100911.72;;;4.80;66.82
51715;BME280;39115;59.332;18.034;2024-03-17T01:40:16;100902.97;;;4.80;66.88
51715;BME280;39115;59.332;18.034;2024-03-17T01:42:40;100892.50;;;4.78;67.04
51715;BME280;39115;59.332;18.034;2024-03-17T01:45:20;100904.94;;;4.76;66.75
51715;BME280;39115;59.332;18.034;2024-03-17T01:47:45;100906.84;;;4.74;67.15
51715;BME280;39115;59.332;18.034;2024-03-17T01:50:06;100905.97;;;4.73;66.92
51715;BME280;39115;59.332;18.034;2024-03-17T01:52:28;100920.09;;;4.72;66.81
51715;BME280;39115;59.332;18.034;2024-03-17T01:54:49;100913.22;;;4.70;67.14
51715;BME280;39115;59.332;18.034;2024-03-17T01:57:10;100912.47;;;4.68;66.81
51715;BME280;39115;59.332;18.034;2024-03-17T01:59:31;100903.81;;;4.66;67.38
51715;BME280;39115;59.332;18.034;2024-03-17T02:01:51;100910.75;;;4.67;66.77
51715;BME280;39115;59.332;18.034;2024-03-17T02:04:12;100921.50;;;4.64;66.90
51715;BME280;39115;59.332;18.034;2024-03-17T02:06:33;100924.16;;;4.64;67.07
51715;BME280;39115;59.332;18.034;2024-03-17T02:08:54;100930.47;;;4.61;66.96
51715;BME280;39115;59.332;18.034;2024-03-17T02:11:29;100941.94;;;4.60;67.15
51715;BME280;39115;59.332;18.034;2024-03-17T02:13:50;100948.16;;;4.59;66.71
51715;BME280;39115;59.332;18.034;2024-03-17T02:16:11;100946.44;;;4.58;66.75
51715;BME280;39115;59.332;18.034;2024-03-17T02:18:31;100950.94;;;4.56;66.95
51715;BME280;39115;59.332;18.034;2024-03-17T02:20:52;100961.59;;;4.54;66.74
51715;BME280;39115;59.332;18.034;2024-03-17T02:23:15;100946.72;;;4.53;66.69
51715;BME280;39115;59.332;18.034;2024-03-17T02:25:35;100962.63;;;4.52;66.60
51715;BME280;39115;59.332;18.034;2024-03-17T02:27:56;100951.22;;;4.51;66.61
51715;BME280;39115;59.332;18.034;2024-03-17T02:30:16;100965.44;;;4.49;66.83
51715;BME280;39115;59.332;18.034;2024-03-17T02:32:37;100963.72;;;4.48;67.19
51715;BME280;39115;59.332;18.034;2024-03-17T02:34:58;100972.63;;;4.47;67.29
51715;BME280;39115;59.332;18.034;2024-03-17T02:37:19;100981.44;;;4.46;66.79
51715;BME280;39115;59.332;18.034;2024-03-17T02:39:39;100987.66;;;4.45;67.01
51715;BME280;39115;59.332;18.034;2024-03-17T02:42:02;100988.69;;;4.42;66.81
51715;BME280;39115;59.332;18.034;2024-03-17T02:44:22;100987.00;;;4.41;66.97
51715;BME280;39115;59.332;18.034;2024-03-17T02:46:43;100994.13;;;4.39;67.15
51715;BME280;39115;59.332;18.034;2024-03-17T02:49:03;100996.75;;;4.39;66.73
51715;BME280;39115;59.332;18.034;2024-03-17T02:51:24;101008.50;;;4.33;67.00
51715;BME280;39115;59.332;18.034;2024-03-17T02:53:46;101002.19;;;4.36;66.99
51715;BME280;39115;59.332;18.034;2024-03-17T02:56:06;101013.72;;;4.35;66.90
51715;BME280;39115;59.332;18.034;2024-03-17T02:58:27;101043.69;;;4.32;67.04
51715;BME280;39115;59.332;18.034;2024-03-17T03:00:47;101033.16;;;4.32;66.78
51715;BME280;39115;59.332;18.034;2024-03-17T03:03:08;101026.28;;;4.30;66.83
51715;BME280;39115;59.332;18.034;2024-03-17T03:05:29;101048.28;;;4.28;67.08
51715;BME280;39115;59.332;18.034;2024-03-17T03:07:50;101029.94;;;4.27;67.22
51715;BME280;39115;59.332;18.034;2024-03-17T03:10:12;101051.97;;;4.26;67.02
51715;BME280;39115;59.332;18.034;2024-03-17T03:12:32;101053.81;;;4.24;66.87
51715;BME280;39115;59.332;18.034;2024-03-17T03:14:53;101063.53;;;4.23;66.88
51715;BME280;39115;59.332;18.034;2024-03-17T03:17:14;101071.53;;;4.22;66.48
51715;BME280;39115;59.332;18.034;2024-03-17T03:19:34;101073.28;;;4.21;66.79
51715;BME280;39115;59.332;18.034;2024-03-17T03:21:55;101082.13;;;4.20;66.93
51715;BME280;39115;59.332;18.034;2024-03-17T03:24:16;101075.25;;;4.18;66.99
51715;BME280;39115;59.332;18.034;2024-03-17T03:26:37;101073.56;;;4.17;66.41
51715;BME280;39115;59.332;18.034;2024-03-17T03:28:58;101096.53;;;4.15;67.15
51715;BME280;39115;59.332;18.034;2024-03-17T03:31:19;101086.91;;;4.14;66.41
51715;BME280;39115;59.332;18.034;2024-03-17T03:33:40;101109.84;;;4.11;66.87
51715;BME280;39115;59.332;18.034;2024-03-17T03:36:14;101127.47;;;4.11;66.90
51715;BME280;39115;59.332;18.034;2024-03-17T03:38:34;101115.22;;;4.10;66.90
51715;BME280;39115;59.332;18.034;2024-03-17T03:40:55;101120.53;;;4.08;66.82
51715;BME280;39115;59.332;18.034;2024-03-17T03:43:15;101130.34;;;4.06;66.66
51715;BME280;39115;59.332;18.034;2024-03-17T03:45:36;101126.00;;;4.05;67.01
51715;BME280;39115;59.332;18.034;2024-03-17T03:47:57;101134.84;;;4.04;66.71
51715;BME280;39115;59.332;18.034;2024-03-17T03:50:20;101139.25;;;4.04;66.37
51715;BME280;39115;59.332;18.034;2024-03-17T03:52:41;101127.59;;;3.92;66.83
51715;BME280;39115;59.332;18.034;2024-03-17T03:55:03;101159.66;;;4.00;66.72
51715;BME280;39115;59.332;18.034;2024-03-17T03:57:24;101144.78;;;3.99;66.68
51715;BME280;39115;59.332;18.034;2024-03-17T03:59:48;101160.66;;;3.98;66.65
51715;BME280;39115;59.332;18.034;2024-03-17T04:02:08;101163.38;;;3.96;66.94
51715;BME280;39115;59.332;18.034;2024-03-17T04:04:29;101164.25;;;3.97;66.56
51715;BME280;39115;59.332;18.034;2024-03-17T04:06:50;101173.13;;;3.94;66.82
51715;BME280;39115;59.332;18.034;2024-03-17T04:09:11;101182.06;;;3.91;66.63
51715;BME280;39115;59.332;18.034;2024-03-17T04:11:34;101189.03;;;3.92;66.42
51715;BME280;39115;59.332;18.034;2024-03-17T04:13:56;101191.75;;;3.91;66.85
51715;BME280;39115;59.332;18.034;2024-03-17T04:16:17;101196.16;;;3.90;66.34
51715;BME280;39115;59.332;18.034;2024-03-17T04:18:40;101206.78;;;3.89;66.90
51715;BME280;39115;59.332;18.034;2024-03-17T04:21:05;101207.69;;;3.88;66.87
51715;BME280;39115;59.332;18.034;2024-03-17T04:23:27;101214.81;;;3.86;66.50
51715;BME280;39115;59.332;18.034;2024-03-17T04:25:48;101216.72;;;3.84;66.54
51715;BME280;39115;59.332;18.034;2024-03-17T04:28:09;101222.03;;;3.82;66.50
51715;BME280;39115;59.332;18.034;2024-03-17T04:30:29;101221.28;;;3.80;66.36
51715;BME280;39115;59.332;18.034;2024-03-17T04:32:51;101221.28;;;3.80;66.82
51715;BME280;39115;59.332;18.034;2024-03-17T04:35:12;101229.25;;;3.78;66.80
51715;BME280;39115;59.332;18.034;2024-03-17T04:37:32;101211.72;;;3.77;66.84
51715;BME280;39115;59.332;18.034;2024-03-17T04:39:59;101233.75;;;3.76;66.56
51715;BME280;39115;59.332;18.034;2024-03-17T04:42:19;101222.44;;;3.74;66.57
51715;BME280;39115;59.332;18.034;2024-03-17T04:44:43;101237.38;;;3.74;66.70
51715;BME280;39115;59.332;18.034;2024-03-17T04:47:04;101241.81;;;3.73;66.44
51715;BME280;39115;59.332;18.034;2024-03-17T04:49:27;101253.25;;;3.72;66.55
51715;BME280;39115;59.332;18.034;2024-03-17T04:51:47;101254.19;;;3.71;66.44
51715;BME280;39115;59.332;18.034;2024-03-17T04:54:07;101265.66;;;3.70;66.77
51715;BME280;39115;59.332;18.034;2024-03-17T04:56:28;101257.75;;;3.70;66.61
51715;BME280;39115;59.332;18.034;2024-03-17T04:58:49;101266.66;;;3.68;66.83
51715;BME280;39115;59.332;18.034;2024-03-17T05:01:09;101280.69;;;3.68;66.63
51715;BME280;39115;59.332;18.034;2024-03-17T05:03:30;101284.31;;;3.66;66.87
51715;BME280;39115;59.332;18.034;2024-03-17T05:05:58;101281.69;;;3.66;66.58
51715;BME280;39115;59.332;18.034;2024-03-17T05:08:21;101291.44;;;3.63;66.49
51715;BME280;39115;59.332;18.034;2024-03-17T05:10:41;101288.81;;;3.63;66.44
51715;BME280;39115;59.332;18.034;2024-03-17T05:13:01;101285.63;;;3.57;66.39
51715;BME280;39115;59.332;18.034;2024-03-17T05:15:23;101291.59;;;3.60;66.31
51715;BME280;39115;59.332;18.034;2024-03-17T05:17:43;101312.75;;;3.59;66.69
51715;BME280;39115;59.332;18.034;2024-03-17T05:20:04;101304.84;;;3.59;66.44
51715;BME280;39115;59.332;18.034;2024-03-17T05:22:25;101314.59;;;3.57;66.41
51715;BME280;39115;59.332;18.034;2024-03-17T05:24:46;101323.41;;;3.56;66.72
51715;BME280;39115;59.332;18.034;2024-03-17T05:27:06;101328.75;;;3.54;66.31
51715;BME280;39115;59.332;18.034;2024-03-17T05:29:27;101336.75;;;3.53;66.58
51715;BME280;39115;59.332;18.034;2024-03-17T05:31:48;101349.03;;;3.52;66.50
51715;BME280;39115;59.332;18.034;2024-03-17T05:34:09;101346.56;;;3.49;66.57
51715;BME280;39115;59.332;18.034;2024-03-17T05:36:30;101370.25;;;3.49;66.63
51715;BME280;39115;59.332;18.034;2024-03-17T05:38:52;101361.50;;;3.48;66.58
51715;BME280;39115;59.332;18.034;2024-03-17T05:41:13;101376.44;;;3.48;66.75
51715;BME280;39115;59.332;18.034;2024-03-17T05:43:37;101376.50;;;3.46;66.41
51715;BME280;39115;59.332;18.034;2024-03-17T05:45:59;101399.44;;;3.44;66.51
51715;BME280;39115;59.332;18.034;2024-03-17T05:48:21;101402.06;;;3.44;66.40
51715;BME280;39115;59.332;18.034;2024-03-17T05:50:41;101396.00;;;3.42;66.57
51715;BME280;39115;59.332;18.034;2024-03-17T05:53:02;101398.72;;;3.41;66.69
51715;BME280;39115;59.332;18.034;2024-03-17T05:55:23;101403.28;;;3.37;66.75
51715;BME280;39115;59.332;18.034;2024-03-17T05:57:43;101414.56;;;3.39;66.55
51715;BME280;39115;59.332;18.034;2024-03-17T06:00:04;101426.03;;;3.38;66.50
51715;BME280;39115;59.332;18.034;2024-03-17T06:02:25;101415.56;;;3.37;66.62
51715;BME280;39115;59.332;18.034;2024-03-17T06:04:45;101426.09;;;3.37;66.53
51715;BME280;39115;59.332;18.034;2024-03-17T06:07:05;101427.88;;;3.36;66.68
51715;BME280;39115;59.332;18.034;2024-03-17T06:09:26;101445.53;;;3.34;66.26
51715;BME280;39115;59.332;18.034;2024-03-17T06:11:47;101442.88;;;3.34;66.28
51715;BME280;39115;59.332;18.034;2024-03-17T06:14:07;101454.34;;;3.33;66.47
51715;BME280;39115;59.332;18.034;2024-03-17T06:16:31;101451.78;;;3.31;66.63
51715;BME280;39115;59.332;18.034;2024-03-17T06:18:52;101470.22;;;3.31;66.38
51715;BME280;39115;59.332;18.034;2024-03-17T06:21:12;101471.13;;;3.30;66.67
51715;BME280;39115;59.332;18.034;2024-03-17T06:23:33;101483.44;;;3.30;66.39
51715;BME280;39115;59.332;18.034;2024-03-17T06:25:54;101490.47;;;3.29;66.60
51715;BME280;39115;59.332;18.034;2024-03-17T06:28:17;101501.06;;;3.28;66.33
51715;BME280;39115;59.332;18.034;2024-03-17T06:30:38;101500.19;;;3.27;66.52
51715;BME280;39115;59.332;18.034;2024-03-17T06:32:58;101494.19;;;3.25;66.52
51715;BME280;39115;59.332;18.034;2024-03-17T06:35:19;101515.16;;;3.27;66.55
51715;BME280;39115;59.332;18.034;2024-03-17T06:37:40;101511.72;;;3.25;66.20
51715;BME280;39115;59.332;18.034;2024-03-17T06:40:01;101517.91;;;3.24;66.32
51715;BME280;39115;59.332;18.034;2024-03-17T06:42:23;101509.44;;;3.17;66.48
51715;BME280;39115;59.332;18.034;2024-03-17T06:44:43;101533.69;;;3.24;66.34
51715;BME280;39115;59.332;18.034;2024-03-17T06:47:04;101525.88;;;3.22;66.41
51715;BME280;39115;59.332;18.034;2024-03-17T06:49:24;101536.41;;;3.22;66.33
51715;BME280;39115;59.332;18.034;2024-03-17T06:51:45;101539.94;;;3.21;66.25
51715;BME280;39115;59.332;18.034;2024-03-17T06:54:05;101534.75;;;3.20;66.49
51715;BME280;39115;59.332;18.034;2024-03-17T06:56:26;101539.88;;;3.23;66.34
51715;BME280;39115;59.332;18.034;2024-03-17T06:58:46;101542.59;;;3.21;66.15
51715;BME280;39115;59.332;18.034;2024-03-17T07:01:08;101540.88;;;3.20;66.38
51715;BME280;39115;59.332;18.034;2024-03-17T07:03:30;101547.00;;;3.21;66.16
51715;BME280;39115;59.332;18.034;2024-03-17T07:05:55;101558.44;;;3.20;66.34
51715;BME280;39115;59.332;18.034;2024-03-17T07:08:16;101559.38;;;3.19;66.10
51715;BME280;39115;59.332;18.034;2024-03-17T07:10:36;101567.25;;;3.19;66.31
51715;BME280;39115;59.332;18.034;2024-03-17T07:12:57;101553.25;;;3.18;66.21
51715;BME280;39115;59.332;18.034;2024-03-17T07:15:17;101557.66;;;3.17;66.24
51715;BME280;39115;59.332;18.034;2024-03-17T07:17:38;101564.69;;;3.17;66.21
51715;BME280;39115;59.332;18.034;2024-03-17T07:19:58;101562.91;;;3.17;66.19
51715;BME280;39115;59.332;18.034;2024-03-17T07:22:19;101576.94;;;3.18;66.17
51715;BME280;39115;59.332;18.034;2024-03-17T07:24:39;101576.16;;;3.16;66.23
51715;BME280;39115;59.332;18.034;2024-03-17T07:27:00;101558.56;;;3.16;66.40
51715;BME280;39115;59.332;18.034;2024-03-17T07:29:20;101577.91;;;3.15;66.26
51715;BME280;39115;59.332;18.034;2024-03-17T07:31:41;101583.13;;;3.17;66.13
51715;BME280;39115;59.332;18.034;2024-03-17T07:34:02;101580.53;;;3.15;66.24
51715;BME280;39115;59.332;18.034;2024-03-17T07:36:23;101590.22;;;3.15;66.00
51715;BME280;39115;59.332;18.034;2024-03-17T07:38:43;101590.22;;;3.15;66.03
51715;BME280;39115;59.332;18.034;2024-03-17T07:41:06;101606.84;;;3.15;66.03
51715;BME280;39115;59.332;18.034;2024-03-17T07:43:28;101614.75;;;3.15;66.14
51715;BME280;39115;59.332;18.034;2024-03-17T07:46:17;101606.00;;;3.15;66.34
51715;BME280;39115;59.332;18.034;2024-03-17T07:48:38;101623.59;;;3.14;65.95
51715;BME280;39115;59.332;18.034;2024-03-17T07:51:03;101617.44;;;3.14;66.32
51715;BME280;39115;59.332;18.034;2024-03-17T07:53:24;101623.59;;;3.14;66.18
51715;BME280;39115;59.332;18.034;2024-03-17T07:55:45;101622.78;;;3.12;66.17
51715;BME280;39115;59.332;18.034;2024-03-17T07:58:05;101628.03;;;3.12;66.33
51715;BME280;39115;59.332;18.034;2024-03-17T08:00:27;101622.84;;;3.11;66.30
51715;BME280;39115;59.332;18.034;2024-03-17T08:02:48;101650.84;;;3.12;66.21
51715;BME280;39115;59.332;18.034;2024-03-17T08:05:09;101636.94;;;3.10;66.32
51715;BME280;39115;59.332;18.034;2024-03-17T08:07:31;101652.66;;;3.11;66.32
51715;BME280;39115;59.332;18.034;2024-03-17T08:09:52;101644.75;;;3.11;66.03
51715;BME280;39115;59.332;18.034;2024-03-17T08:12:12;101665.78;;;3.11;66.18
51715;BME280;39115;59.332;18.034;2024-03-17T08:14:33;101669.28;;;3.12;66.14
51715;BME280;39115;59.332;18.034;2024-03-17T08:16:53;101678.94;;;3.11;66.19
51715;BME280;39115;59.332;18.034;2024-03-17T08:19:14;101681.59;;;3.11;66.16
51715;BME280;39115;59.332;18.034;2024-03-17T08:21:35;101688.56;;;3.12;66.03
51715;BME280;39115;59.332;18.034;2024-03-17T08:23:55;101697.38;;;3.11;66.08
51715;BME280;39115;59.332;18.034;2024-03-17T08:26:16;101698.22;;;3.12;65.99
51715;BME280;39115;59.332;18.034;2024-03-17T08:28:36;101687.66;;;3.13;66.13
51715;BME280;39115;59.332;18.034;2024-03-17T08:30:58;101695.53;;;3.13;66.03
51715;BME280;39115;59.332;18.034;2024-03-17T08:33:19;101705.16;;;3.14;65.97
51715;BME280;39115;59.332;18.034;2024-03-17T08:35:40;101705.16;;;3.14;66.10
51715;BME280;39115;59.332;18.034;2024-03-17T08:38:00;101706.06;;;3.13;66.10
51715;BME280;39115;59.332;18.034;2024-03-17T08:40:21;101710.25;;;3.17;65.94
51715;BME280;39115;59.332;18.034;2024-03-17T08:42:43;101702.38;;;3.17;65.91
51715;BME280;39115;59.332;18.034;2024-03-17T08:45:04;101719.88;;;3.19;65.86
51715;BME280;39115;59.332;18.034;2024-03-17T08:47:24;101711.13;;;3.18;65.83
51715;BME280;39115;59.332;18.034;2024-03-17T08:49:45;101730.41;;;3.19;66.26
51715;BME280;39115;59.332;18.034;2024-03-17T08:52:05;101728.50;;;3.22;66.09
51715;BME280;39115;59.332;18.034;2024-03-17T08:54:26;101753.03;;;3.23;65.98
51715;BME280;39115;59.332;18.034;2024-03-17T08:56:46;101749.47;;;3.24;66.17
51715;BME280;39115;59.332;18.034;2024-03-17T08:59:08;101762.59;;;3.25;65.88
51715;BME280;39115;59.332;18.034;2024-03-17T09:01:32;101762.53;;;3.27;65.94
51715;BME280;39115;59.332;18.034;2024-03-17T09:03:52;101766.88;;;3.28;65.99
51715;BME280;39115;59.332;18.034;2024-03-17T09:06:16;101773.78;;;3.30;65.93
51715;BME280;39115;59.332;18.034;2024-03-17T09:08:39;101767.59;;;3.31;66.02
51715;BME280;39115;59.332;18.034;2024-03-17T09:10:59;101792.09;;;3.34;65.91
51715;BME280;39115;59.332;18.034;2024-03-17T09:13:24;101788.47;;;3.36;66.16
51715;BME280;39115;59.332;18.034;2024-03-17T09:15:57;101799.84;;;3.37;65.95
51715;BME280;39115;59.332;18.034;2024-03-17T09:18:20;101797.09;;;3.40;65.81
51715;BME280;39115;59.332;18.034;2024-03-17T09:20:40;101818.09;;;3.41;65.89
51715;BME280;39115;59.332;18.034;2024-03-17T09:23:02;101803.94;;;3.44;65.76
51715;BME280;39115;59.332;18.034;2024-03-17T09:25:23;101832.84;;;3.45;65.98
51715;BME280;39115;59.332;18.034;2024-03-17T09:27:44;101817.00;;;3.47;66.03
51715;BME280;39115;59.332;18.034;2024-03-17T09:30:05;101817.78;;;3.49;65.93
51715;BME280;39115;59.332;18.034;2024-03-17T09:32:29;101812.38;;;3.52;66.00
51715;BME280;39115;59.332;18.034;2024-03-17T09:34:50;101822.91;;;3.52;66.05
51715;BME280;39115;59.332;18.034;2024-03-17T09:37:10;101829.81;;;3.55;65.66
51715;BME280;39115;59.332;18.034;2024-03-17T09:39:30;101831.53;;;3.56;65.99
51715;BME280;39115;59.332;18.034;2024-03-17T09:41:51;101834.97;;;3.58;65.74
51715;BME280;39115;59.332;18.034;2024-03-17T09:44:12;101832.22;;;3.61;65.74
51715;BME280;39115;59.332;18.034;2024-03-17T09:46:33;101851.50;;;3.61;65.80
51715;BME280;39115;59.332;18.034;2024-03-17T09:48:54;101836.50;;;3.63;65.63
51715;BME280;39115;59.332;18.034;2024-03-17T09:51:20;101852.25;;;3.65;65.62
51715;BME280;39115;59.332;18.034;2024-03-17T09:53:41;101858.31;;;3.67;66.04
51715;BME280;39115;59.332;18.034;2024-03-17T09:56:10;101861.84;;;3.66;65.52
51715;BME280;39115;59.332;18.034;2024-03-17T09:58:31;101866.13;;;3.69;65.51
51715;BME280;39115;59.332;18.034;2024-03-17T10:00:52;101860.78;;;3.70;65.76
51715;BME280;39115;59.332;18.034;2024-03-17T10:03:39;101874.78;;;3.72;65.67
51715;BME280;39115;59.332;18.034;2024-03-17T10:06:00;101883.47;;;3.74;65.79
51715;BME280;39115;59.332;18.034;2024-03-17T10:08:21;101874.69;;;3.74;65.42
51715;BME280;39115;59.332;18.034;2024-03-17T10:10:42;101894.81;;;3.76;65.53
51715;BME280;39115;59.332;18.034;2024-03-17T10:13:02;101890.31;;;3.78;65.79
51715;BME280;39115;59.332;18.034;2024-03-17T10:15:23;101905.19;;;3.79;65.89
51715;BME280;39115;59.332;18.034;2024-03-17T10:17:44;101902.50;;;3.81;65.49
51715;BME280;39115;59.332;18.034;2024-03-17T10:20:30;101930.56;;;3.82;65.69
51715;BME280;39115;59.332;18.034;2024-03-17T10:25:20;101939.25;;;3.84;65.38
51715;BME280;39115;59.332;18.034;2024-03-17T10:27:43;101940.13;;;3.85;65.54
51715;BME280;39115;59.332;18.034;2024-03-17T10:30:05;101925.09;;;3.87;65.58
51715;BME280;39115;59.332;18.034;2024-03-17T10:32:26;101938.28;;;3.87;65.69
51715;BME280;39115;59.332;18.034;2024-03-17T10:34:47;101944.34;;;3.89;65.76
51715;BME280;39115;59.332;18.034;2024-03-17T10:37:08;101949.53;;;3.90;65.32
51715;BME280;39115;59.332;18.034;2024-03-17T10:39:32;101953.06;;;3.91;65.46
51715;BME280;39115;59.332;18.034;2024-03-17T10:41:59;101949.50;;;3.92;65.16
51715;BME280;39115;59.332;18.034;2024-03-17T10:44:20;101944.16;;;3.93;65.69
51715;BME280;39115;59.332;18.034;2024-03-17T10:46:40;101961.69;;;3.94;65.50
51715;BME280;39115;59.332;18.034;2024-03-17T10:49:02;101965.13;;;3.97;65.78
51715;BME280;39115;59.332;18.034;2024-03-17T10:51:23;101962.50;;;3.97;65.33
51715;BME280;39115;59.332;18.034;2024-03-17T10:53:46;101967.69;;;3.98;65.53
51715;BME280;39115;59.332;18.034;2024-03-17T10:56:08;101970.31;;;3.98;65.42
51715;BME280;39115;59.332;18.034;2024-03-17T10:58:34;101965.88;;;4.00;65.33
51715;BME280;39115;59.332;18.034;2024-03-17T11:01:00;101980.72;;;4.01;65.45
51715;BME280;39115;59.332;18.034;2024-03-17T11:03:23;101976.34;;;4.02;65.82
51715;BME280;39115;59.332;18.034;2024-03-17T11:05:46;101991.22;;;4.03;65.63
51715;BME280;39115;59.332;18.034;2024-03-17T11:08:14;101994.63;;;4.05;65.38
51715;BME280;39115;59.332;18.034;2024-03-17T11:10:36;101986.69;;;4.06;65.35
51715;BME280;39115;59.332;18.034;2024-03-17T11:13:00;101999.88;;;4.06;65.62
51715;BME280;39115;59.332;18.034;2024-03-17T11:20:27;102002.34;;;4.09;65.68
51715;BME280;39115;59.332;18.034;2024-03-17T11:22:56;102015.50;;;4.11;65.65
51715;BME280;39115;59.332;18.034;2024-03-17T11:25:40;102027.75;;;4.12;65.74
51715;BME280;39115;59.332;18.034;2024-03-17T11:28:06;102028.53;;;4.14;65.72
51715;BME280;39115;59.332;18.034;2024-03-17T11:35:50;102027.53;;;4.17;65.56
51715;BME280;39115;59.332;18.034;2024-03-17T11:41:50;102067.78;;;4.22;65.22
51715;BME280;39115;59.332;18.034;2024-03-17T11:46:39;102065.88;;;4.25;65.11
51715;BME280;39115;59.332;18.034;2024-03-17T11:49:03;102075.44;;;4.28;65.59
51715;BME280;39115;59.332;18.034;2024-03-17T11:51:24;102050.78;;;4.29;65.38
51715;BME280;39115;59.332;18.034;2024-03-17T11:53:45;102063.91;;;4.31;65.73
51715;BME280;39115;59.332;18.034;2024-03-17T11:56:05;102060.28;;;4.33;65.59
51715;BME280;39115;59.332;18.034;2024-03-17T11:58:26;102071.63;;;4.35;65.12
51715;BME280;39115;59.332;18.034;2024-03-17T12:00:51;102075.97;;;4.36;65.62
51715;BME280;39115;59.332;18.034;2024-03-17T12:03:12;102082.91;;;4.39;65.61
51715;BME280;39115;59.332;18.034;2024-03-17T12:05:32;102082.00;;;4.40;65.77
51715;BME280;39115;59.332;18.034;2024-03-17T12:07:53;102089.78;;;4.43;65.35
51715;BME280;39115;59.332;18.034;2024-03-17T12:10:14;102093.28;;;4.43;65.84
51715;BME280;39115;59.332;18.034;2024-03-17T12:12:36;102082.66;;;4.45;65.33
51715;BME280;39115;59.332;18.034;2024-03-17T12:14:56;102081.66;;;4.48;65.30
51715;BME280;39115;59.332;18.034;2024-03-17T12:17:21;102097.44;;;4.49;65.51
51715;BME280;39115;59.332;18.034;2024-03-17T12:19:44;102100.84;;;4.51;65.36
51715;BME280;39115;59.332;18.034;2024-03-17T12:22:06;102113.94;;;4.54;65.82
51715;BME280;39115;59.332;18.034;2024-03-17T12:24:32;102111.22;;;4.56;65.43
51715;BME280;39115;59.332;18.034;2024-03-17T12:26:54;102100.63;;;4.57;65.25
51715;BME280;39115;59.332;18.034;2024-03-17T12:29:39;102108.47;;;4.59;65.26
51715;BME280;39115;59.332;18.034;2024-03-17T12:32:04;102110.19;;;4.60;65.17
51715;BME280;39115;59.332;18.034;2024-03-17T12:34:29;102115.41;;;4.62;65.27
51715;BME280;39115;59.332;18.034;2024-03-17T12:36:51;102118.84;;;4.64;65.01
51715;BME280;39115;59.332;18.034;2024-03-17T12:39:19;102121.41;;;4.65;65.04
51715;BME280;39115;59.332;18.034;2024-03-17T12:41:40;102117.84;;;4.66;65.22